Time;durP1;ratioP1;P1;durP2;ratioP2;P2;SDS_P1;SDS_P2;PMS_P1;PMS_P2;Temp;Humidity;BMP_temperature;BMP_pressure;BME280_temperature;BME280_humidity;BME280_pressure;Samples;Min_cycle;Max_cycle;Signal;HPM_P1;HPM_P2
2023/08/14 00:00:18;;;;;;;14.83;12.67;;;;;;;16.52;100.00;101418.00;5264278;28;20036;-78
2023/08/14 00:02:50;;;;;;;14.63;12.70;;;;;;;16.47;100.00;101419.91;5264382;28;20033;-79
2023/08/14 00:05:21;;;;;;;15.60;11.37;;;;;;;16.45;100.00;101415.56;5264778;28;20068;-79
2023/08/14 00:07:52;;;;;;;12.67;11.17;;;;;;;16.48;100.00;101410.22;5248302;28;20461;-78
2023/08/14 00:10:24;;;;;;;20.17;12.73;;;;;;;16.43;100.00;101420.03;5265212;28;20107;-78
2023/08/14 00:12:55;;;;;;;16.37;13.00;;;;;;;16.35;100.00;101413.19;5264446;28;20032;-79
2023/08/14 00:15:27;;;;;;;19.07;12.60;;;;;;;16.43;100.00;101415.63;5264314;28;20032;-79
2023/08/14 00:17:58;;;;;;;18.20;10.77;;;;;;;16.36;100.00;101417.56;5264201;28;20408;-79
2023/08/14 00:20:29;;;;;;;16.57;11.53;;;;;;;16.26;100.00;101418.72;5246688;28;20078;-79
2023/08/14 00:23:01;;;;;;;19.80;10.60;;;;;;;16.13;100.00;101409.41;5264170;28;20083;-78
2023/08/14 00:25:32;;;;;;;11.93;8.27;;;;;;;16.11;100.00;101408.56;5264443;28;20033;-79
2023/08/14 00:28:04;;;;;;;13.33;8.00;;;;;;;16.07;100.00;101407.81;5264571;28;20037;-76
2023/08/14 00:30:35;;;;;;;13.63;8.17;;;;;;;16.08;100.00;101401.63;5253995;28;20032;-78
2023/08/14 00:33:06;;;;;;;13.37;8.53;;;;;;;16.02;100.00;101396.53;5280065;28;20059;-79
2023/08/14 00:35:38;;;;;;;10.17;7.40;;;;;;;16.01;100.00;101402.69;5284449;28;20082;-79
2023/08/14 00:38:09;;;;;;;11.27;7.27;;;;;;;15.96;100.00;101404.59;5283256;28;20028;-79
2023/08/14 00:40:40;;;;;;;9.30;6.97;;;;;;;15.98;100.00;101406.25;5284287;28;20025;-79
2023/08/14 00:43:13;;;;;;;11.37;7.03;;;;;;;15.92;100.00;101411.66;5282661;28;20107;-78
2023/08/14 00:45:44;;;;;;;9.98;7.28;;;;;;;15.95;100.00;101402.84;5284146;28;20048;-79
2023/08/14 00:48:16;;;;;;;11.77;6.83;;;;;;;15.88;100.00;101401.28;5283757;28;20464;-79
2023/08/14 00:50:47;;;;;;;8.70;6.27;;;;;;;15.89;100.00;101405.63;5283787;28;20494;-78
2023/08/14 00:53:19;;;;;;;11.63;6.80;;;;;;;15.97;100.00;101409.81;5282663;28;20361;-78
2023/08/14 00:55:51;;;;;;;10.70;7.20;;;;;;;16.00;100.00;101396.59;5282913;28;20086;-77
2023/08/14 00:58:23;;;;;;;10.43;6.93;;;;;;;15.95;100.00;101389.69;5284053;28;20040;-78
2023/08/14 01:00:56;;;;;;;11.33;6.00;;;;;;;15.96;100.00;101394.06;5283682;28;20036;-78
2023/08/14 01:03:28;;;;;;;12.13;7.05;;;;;;;15.82;100.00;101403.13;5284005;28;20277;-79
2023/08/14 01:06:00;;;;;;;10.50;5.68;;;;;;;15.83;100.00;101391.75;5284141;28;20468;-77
2023/08/14 01:08:33;;;;;;;7.93;5.90;;;;;;;15.81;100.00;101390.91;5282647;28;20043;-78
2023/08/14 01:11:15;;;;;;;9.68;6.57;;;;;;;15.72;100.00;101387.63;5284040;28;20036;-78
2023/08/14 01:13:53;;;;;;;14.65;7.22;;;;;;;15.64;100.00;101378.16;5283699;28;20032;-78
2023/08/14 01:16:33;;;;;;;13.15;6.90;;;;;;;15.72;100.00;101385.00;5283332;28;20032;-78
2023/08/14 01:19:09;;;;;;;10.25;6.10;;;;;;;15.75;100.00;101384.91;5283800;28;20057;-77
2023/08/14 01:21:53;;;;;;;10.05;6.43;;;;;;;15.85;100.00;101381.19;5283666;28;20064;-78
2023/08/14 01:25:07;;;;;;;10.65;6.15;;;;;;;15.85;100.00;101381.19;5282481;28;20063;-77
2023/08/14 01:27:38;;;;;;;;;;;;;;;15.91;100.00;101375.78;5283189;28;20086;-78
2023/08/14 01:30:10;;;;;;;10.35;5.68;;;;;;;15.79;100.00;101374.34;5283535;28;20007;-79
2023/08/14 01:32:41;;;;;;;9.45;6.10;;;;;;;15.71;100.00;101373.59;5281890;28;20492;-78
2023/08/14 01:35:15;;;;;;;10.57;5.90;;;;;;;15.74;100.00;101372.66;5283566;28;20037;-77
2023/08/14 01:37:59;;;;;;;8.48;5.65;;;;;;;15.64;100.00;101369.41;5283338;28;20041;-78
2023/08/14 01:40:57;;;;;;;11.25;6.22;;;;;;;15.56;100.00;101374.84;5283687;28;20082;-76
2023/08/14 01:43:36;;;;;;;13.45;6.13;;;;;;;15.59;100.00;101363.41;5275835;28;20037;-78
2023/08/14 01:46:10;;;;;;;8.13;6.35;;;;;;;15.52;100.00;101360.06;5282742;28;20369;-78
2023/08/14 01:48:42;;;;;;;15.48;6.32;;;;;;;15.51;100.00;101355.72;5283289;28;20033;-77
2023/08/14 01:51:16;;;;;;;11.38;5.97;;;;;;;15.46;100.00;101349.69;5283205;28;20093;-78
2023/08/14 01:53:47;;;;;;;9.25;6.35;;;;;;;15.45;100.00;101347.97;5283075;28;20124;-79
2023/08/14 01:56:19;;;;;;;8.20;5.67;;;;;;;15.42;100.00;101350.66;5286646;28;20369;-79
2023/08/14 01:58:50;;;;;;;8.57;5.43;;;;;;;15.40;100.00;101347.22;5287497;28;20036;-78
2023/08/14 02:01:21;;;;;;;11.20;6.87;;;;;;;15.38;100.00;101335.91;5287648;28;20029;-78
2023/08/14 02:03:53;;;;;;;8.33;6.03;;;;;;;15.37;100.00;101342.03;5286191;28;20040;-78
2023/08/14 02:06:24;;;;;;;13.20;7.43;;;;;;;15.32;100.00;101337.75;5287612;28;20115;-77
2023/08/14 02:08:56;;;;;;;10.60;5.40;;;;;;;15.30;100.00;101336.06;5287234;28;20041;-78
2023/08/14 02:11:27;;;;;;;7.73;5.40;;;;;;;15.36;100.00;101332.41;5286952;28;20495;-77
2023/08/14 02:13:58;;;;;;;9.47;5.47;;;;;;;15.35;100.00;101333.34;5286971;28;20033;-78
2023/08/14 02:16:30;;;;;;;8.50;5.73;;;;;;;15.30;100.00;101331.66;5285784;28;20073;-78
2023/08/14 02:19:01;;;;;;;8.37;5.07;;;;;;;15.30;100.00;101331.66;5287312;28;20060;-77
2023/08/14 02:21:32;;;;;;;10.43;5.30;;;;;;;15.28;100.00;101328.22;5285855;28;20383;-77
2023/08/14 02:24:04;;;;;;;9.30;5.80;;;;;;;15.31;100.00;101327.28;5285930;28;20445;-77
2023/08/14 02:26:36;;;;;;;9.18;5.70;;;;;;;15.29;100.00;101321.19;5286941;28;20472;-78
2023/08/14 02:29:08;;;;;;;12.83;6.23;;;;;;;15.35;100.00;101330.72;5286889;28;20068;-78
2023/08/14 02:31:40;;;;;;;11.57;5.93;;;;;;;15.25;100.00;101322.19;5286445;28;20029;-78
2023/08/14 02:34:11;;;;;;;7.40;5.57;;;;;;;15.17;100.00;101318.88;5285468;28;20456;-78
2023/08/14 02:36:42;;;;;;;9.00;6.03;;;;;;;15.00;100.00;101319.25;5286843;28;20422;-78
2023/08/14 02:39:14;;;;;;;7.43;5.60;;;;;;;15.05;100.00;101309.50;5286838;28;20036;-78
2023/08/14 02:41:45;;;;;;;8.30;5.90;;;;;;;14.97;100.00;101314.06;5286395;28;20032;-77
2023/08/14 02:44:16;;;;;;;7.23;5.03;;;;;;;15.00;100.00;101314.84;5285327;28;20455;-78
2023/08/14 02:46:48;;;;;;;6.87;5.03;;;;;;;14.95;100.00;101306.22;5286275;28;20035;-78
2023/08/14 02:49:19;;;;;;;9.70;5.37;;;;;;;14.87;100.00;101306.41;5286806;28;20056;-77
2023/08/14 02:51:51;;;;;;;6.77;5.30;;;;;;;14.91;100.00;101315.94;5285285;28;20376;-78
2023/08/14 02:54:22;;;;;;;11.03;6.13;;;;;;;14.81;100.00;101316.16;5285458;28;20084;-78
2023/08/14 02:56:54;;;;;;;7.60;5.80;;;;;;;14.85;100.00;101321.31;5286810;28;20037;-79
2023/08/14 02:59:25;;;;;;;9.47;5.20;;;;;;;14.81;100.00;101314.44;5286947;28;20028;-77
2023/08/14 03:01:56;;;;;;;9.67;5.67;;;;;;;14.76;100.00;101313.63;5291386;28;20044;-77
2023/08/14 03:04:29;;;;;;;10.30;6.47;;;;;;;14.80;100.00;101314.47;5299801;28;20036;-77
2023/08/14 03:07:01;;;;;;;10.15;5.88;;;;;;;14.77;100.00;101321.47;5299794;28;20059;-77
2023/08/14 03:09:32;;;;;;;9.07;5.40;;;;;;;14.74;100.00;101311.06;5286319;28;20033;-79
2023/08/14 03:12:04;;;;;;;8.50;5.80;;;;;;;14.68;100.00;101307.69;5285749;28;20094;-79
2023/08/14 03:14:35;;;;;;;8.40;6.30;;;;;;;14.64;100.00;101309.53;5286134;28;20033;-78
2023/08/14 03:17:07;;;;;;;10.40;5.67;;;;;;;14.62;100.00;101310.44;5285512;28;20068;-78
2023/08/14 03:19:38;;;;;;;8.27;5.53;;;;;;;14.66;100.00;101320.00;5285742;28;20028;-77
2023/08/14 03:22:09;;;;;;;8.93;6.07;;;;;;;14.63;100.00;101317.44;5286088;28;20028;-77
2023/08/14 03:24:41;;;;;;;8.73;5.80;;;;;;;14.56;100.00;101327.16;5285467;28;20082;-78
2023/08/14 03:27:12;;;;;;;10.23;6.40;;;;;;;14.58;100.00;101314.88;5285775;28;20029;-77
2023/08/14 03:29:43;;;;;;;8.70;5.77;;;;;;;14.52;100.00;101320.25;5285502;28;20036;-78
2023/08/14 03:32:15;;;;;;;7.80;5.40;;;;;;;14.53;100.00;101314.97;5284106;28;20119;-78
2023/08/14 03:34:46;;;;;;;8.20;5.20;;;;;;;14.55;100.00;101310.56;5264733;28;20025;-78
2023/08/14 03:37:17;;;;;;;9.33;6.63;;;;;;;14.51;100.00;101301.03;5264709;28;20033;-77
2023/08/14 03:39:49;;;;;;;9.27;5.93;;;;;;;14.51;100.00;101311.50;5264785;28;20469;-77
2023/08/14 03:42:20;;;;;;;12.97;6.80;;;;;;;14.48;100.00;101314.19;5265100;28;20085;-77
2023/08/14 03:44:52;;;;;;;10.07;6.73;;;;;;;14.43;100.00;101317.84;5264568;28;20036;-77
2023/08/14 03:47:23;;;;;;;7.90;5.40;;;;;;;14.46;100.00;101315.13;5263881;28;20028;-78
2023/08/14 03:49:54;;;;;;;9.87;5.93;;;;;;;14.45;100.00;101322.13;5246547;28;20420;-77
2023/08/14 03:52:27;;;;;;;9.43;6.10;;;;;;;14.41;100.00;101323.09;5264383;28;20458;-77
2023/08/14 03:54:58;;;;;;;10.90;6.32;;;;;;;14.41;100.00;101320.47;5263964;28;20025;-77
2023/08/14 03:57:30;;;;;;;10.60;6.03;;;;;;;14.36;100.00;101319.69;5264416;28;20043;-77
2023/08/14 04:00:01;;;;;;;10.03;6.63;;;;;;;14.35;100.00;101312.72;5246449;28;20068;-78
2023/08/14 04:02:32;;;;;;;10.47;7.20;;;;;;;14.33;100.00;101314.50;5264364;28;20037;-78
2023/08/14 04:05:04;;;;;;;12.17;6.70;;;;;;;14.40;100.00;101314.34;5264449;28;20041;-78
2023/08/14 04:07:36;;;;;;;11.15;6.72;;;;;;;14.40;100.00;101322.22;5246374;28;20045;-78
2023/08/14 04:10:07;;;;;;;8.97;6.60;;;;;;;14.35;100.00;101312.72;5264066;28;20515;-78
2023/08/14 04:12:39;;;;;;;11.73;5.90;;;;;;;14.31;100.00;101313.69;5263767;28;20033;-78
2023/08/14 04:15:15;;;;;;;10.30;6.63;;;;;;;14.34;100.00;101311.84;5264078;28;20442;-78
2023/08/14 04:17:46;;;;;;;10.68;7.88;;;;;;;14.39;100.00;101298.66;5245065;28;20029;-77
2023/08/14 04:20:17;;;;;;;11.60;7.30;;;;;;;14.41;100.00;101307.38;5246363;28;20055;-76
2023/08/14 04:22:49;;;;;;;9.20;6.73;;;;;;;14.36;100.00;101296.09;5263884;28;20495;-77
2023/08/14 04:25:20;;;;;;;14.00;8.00;;;;;;;14.38;100.00;101291.69;5263571;28;20498;-76
2023/08/14 04:27:52;;;;;;;10.40;7.50;;;;;;;14.32;100.00;101297.91;5263817;28;20033;-77
2023/08/14 04:30:23;;;;;;;9.83;7.67;;;;;;;14.35;100.00;101294.38;5263978;28;20041;-77
2023/08/14 04:32:54;;;;;;;10.30;7.57;;;;;;;14.34;100.00;101285.63;5263112;28;20056;-78
2023/08/14 04:35:26;;;;;;;12.63;8.10;;;;;;;14.36;100.00;101286.47;5263518;28;20041;-77
2023/08/14 04:37:57;;;;;;;12.50;7.80;;;;;;;14.40;100.00;101282.88;5263172;28;20025;-77
2023/08/14 04:40:28;;;;;;;13.13;7.20;;;;;;;14.46;100.00;101287.16;5263157;28;20155;-78
2023/08/14 04:43:00;;;;;;;11.20;7.50;;;;;;;14.41;100.00;101282.00;5245923;28;20032;-78
2023/08/14 04:45:31;;;;;;;12.50;7.30;;;;;;;14.46;100.00;101279.28;5265497;28;20041;-78
2023/08/14 04:48:03;;;;;;;12.00;7.70;;;;;;;14.43;100.00;101271.47;5283752;28;20029;-78
2023/08/14 04:50:34;;;;;;;10.67;7.93;;;;;;;14.43;100.00;101275.88;5284219;28;20060;-78
2023/08/14 04:53:06;;;;;;;10.93;7.30;;;;;;;14.48;100.00;101277.47;5285113;28;20031;-79
2023/08/14 04:55:37;;;;;;;12.03;7.60;;;;;;;14.53;100.00;101269.50;5286671;28;20028;-78
2023/08/14 04:58:09;;;;;;;13.73;8.50;;;;;;;14.54;100.00;101255.50;5286270;28;20036;-78
2023/08/14 05:00:40;;;;;;;10.57;7.70;;;;;;;14.59;100.00;101262.41;5286263;28;20036;-78
2023/08/14 05:03:11;;;;;;;10.87;7.13;;;;;;;14.66;100.00;101247.38;5285976;28;20036;-78
2023/08/14 05:05:43;;;;;;;10.53;7.40;;;;;;;14.66;100.00;101264.91;5286413;28;20029;-77
2023/08/14 05:08:14;;;;;;;12.23;7.30;;;;;;;14.73;100.00;101259.47;5286863;28;20040;-76
2023/08/14 05:10:50;;;;;;;8.50;6.23;;;;;;;14.85;100.00;101257.47;5269165;28;20028;-78
2023/08/14 05:13:22;;;;;;;9.32;6.55;;;;;;;14.90;100.00;101250.34;5286998;28;20029;-77
2023/08/14 05:15:53;;;;;;;10.83;7.00;;;;;;;14.99;100.00;101247.53;5287690;28;20036;-78
2023/08/14 05:18:25;;;;;;;9.68;6.75;;;;;;;15.06;100.00;101249.09;5271442;28;20036;-76
2023/08/14 05:20:56;;;;;;;10.77;7.63;;;;;;;15.25;100.00;101248.66;5290625;28;20379;-79
2023/08/14 05:23:28;;;;;;;12.73;6.87;;;;;;;15.38;100.00;101250.06;5291328;28;20032;-78
2023/08/14 05:25:59;;;;;;;8.93;7.30;;;;;;;15.48;100.00;101258.56;5290856;28;20036;-77
2023/08/14 05:28:32;;;;;;;11.93;7.10;;;;;;;15.61;100.00;101254.72;5271767;28;20017;-78
2023/08/14 05:31:07;;;;;;;8.02;7.22;;;;;;;15.66;100.00;101255.47;5289480;28;20066;-78
2023/08/14 05:33:39;;;;;;;11.13;6.82;;;;;;;15.78;100.00;101263.97;5288778;28;20052;-77
2023/08/14 05:36:10;;;;;;;11.13;9.00;;;;;;;15.89;100.00;101264.53;5291110;28;20092;-78
2023/08/14 05:38:44;;;;;;;8.93;7.53;;;;;;;15.99;100.00;101265.16;5273224;28;20092;-78
2023/08/14 05:41:16;;;;;;;11.13;7.95;;;;;;;16.01;100.00;101272.06;5286736;28;20116;-78
2023/08/14 05:43:48;;;;;;;12.63;7.57;;;;;;;16.10;100.00;101275.34;5286044;28;20066;-77
2023/08/14 05:46:23;;;;;;;12.90;7.40;;;;;;;16.13;100.00;101273.50;5285686;28;20043;-77
2023/08/14 05:48:55;;;;;;;10.95;6.95;;;;;;;16.20;100.00;101274.19;5269192;28;20040;-78
2023/08/14 05:51:26;;;;;;;10.97;8.00;;;;;;;16.24;100.00;101278.44;5285807;28;20048;-78
2023/08/14 05:53:57;;;;;;;15.23;7.60;;;;;;;16.23;100.00;101280.22;5285369;28;20024;-77
2023/08/14 05:56:29;;;;;;;8.70;7.67;;;;;;;16.30;100.00;101283.53;5284976;28;20024;-77
2023/08/14 05:59:00;;;;;;;14.10;8.50;;;;;;;16.38;100.00;101285.97;5266727;28;20043;-78
2023/08/14 06:01:32;;;;;;;13.47;8.57;;;;;;;16.39;100.00;101291.19;5284159;28;20482;-76
2023/08/14 06:04:04;;;;;;;11.83;7.10;;;;;;;16.45;100.00;101292.75;5283388;28;20128;-76
2023/08/14 06:06:35;;;;;;;11.33;8.17;;;;;;;16.49;100.00;101296.19;5265479;28;20279;-78
2023/08/14 06:09:07;;;;;;;11.07;7.33;;;;;;;16.53;100.00;101295.16;5283303;28;20051;-78
2023/08/14 06:11:38;;;;;;;13.40;7.80;;;;;;;16.62;100.00;101304.56;5283289;28;20025;-78
2023/08/14 06:14:09;;;;;;;9.47;7.47;;;;;;;16.66;100.00;101312.31;5283289;28;20067;-78
2023/08/14 06:16:41;;;;;;;14.17;8.33;;;;;;;16.70;100.00;101310.47;5282683;28;20025;-79
2023/08/14 06:19:13;;;;;;;13.77;7.47;;;;;;;16.73;100.00;101298.06;5283057;28;20060;-78
2023/08/14 06:21:44;;;;;;;10.77;7.73;;;;;;;16.74;100.00;101305.06;5283375;28;20035;-78
2023/08/14 06:24:16;;;;;;;10.47;8.03;;;;;;;16.81;100.00;101295.22;5283556;28;20275;-78
2023/08/14 06:26:48;;;;;;;12.20;7.65;;;;;;;16.93;100.00;101288.72;5283421;28;20389;-79
2023/08/14 06:29:19;;;;;;;11.35;8.18;;;;;;;17.08;100.00;101282.97;5282918;28;20586;-79
2023/08/14 06:31:51;;;;;;;12.20;7.13;;;;;;;17.38;100.00;101284.66;5283042;28;20108;-78
2023/08/14 06:34:22;;;;;;;12.67;7.97;;;;;;;17.66;100.00;101288.09;5283482;28;20055;-77
2023/08/14 06:36:54;;;;;;;16.57;8.80;;;;;;;17.86;100.00;101282.09;5282887;28;20404;-79
2023/08/14 06:39:25;;;;;;;12.80;7.73;;;;;;;18.11;100.00;101291.84;5283684;28;20033;-78
2023/08/14 06:41:57;;;;;;;15.17;8.17;;;;;;;18.29;100.00;101290.28;5286658;28;20407;-79
2023/08/14 06:44:28;;;;;;;13.30;6.67;;;;;;;18.34;100.00;101287.50;5287160;28;20025;-77
2023/08/14 06:46:59;;;;;;;14.20;6.70;;;;;;;18.29;100.00;101285.03;5286295;28;20071;-78
2023/08/14 06:49:31;;;;;;;11.03;6.07;;;;;;;18.30;100.00;101286.72;5286591;28;20060;-78
2023/08/14 06:52:03;;;;;;;9.97;5.97;;;;;;;18.31;100.00;101290.25;5286704;28;20024;-77
2023/08/14 06:54:37;;;;;;;12.20;6.43;;;;;;;18.45;100.00;101289.72;5287019;28;20037;-79
2023/08/14 06:57:08;;;;;;;11.50;5.80;;;;;;;18.70;99.85;101287.00;5268800;28;20060;-79
2023/08/14 06:59:39;;;;;;;10.87;5.30;;;;;;;19.10;96.06;101277.53;5286921;28;20139;-80
2023/08/14 07:02:11;;;;;;;13.17;5.57;;;;;;;19.43;93.20;101288.50;5268995;28;20032;-78
2023/08/14 07:04:43;;;;;;;9.80;5.37;;;;;;;19.61;91.13;101285.97;5286654;28;20028;-78
2023/08/14 07:07:20;;;;;;;10.68;5.57;;;;;;;19.72;90.75;101291.66;5287047;28;20056;-81
2023/08/14 07:09:52;;;;;;;9.50;5.72;;;;;;;19.83;88.77;101283.31;5286409;28;20028;-78
2023/08/14 07:12:24;;;;;;;12.37;5.77;;;;;;;19.81;89.55;101285.16;5269134;28;20028;-78
2023/08/14 07:14:55;;;;;;;11.68;5.13;;;;;;;19.79;87.48;101294.97;5286438;28;20116;-77
2023/08/14 07:17:27;;;;;;;12.00;5.13;;;;;;;19.66;89.71;101286.66;5286099;28;20029;-78
2023/08/14 07:19:58;;;;;;;9.13;4.50;;;;;;;19.62;88.98;101279.78;5286739;28;20033;-77
2023/08/14 07:22:30;;;;;;;8.97;4.33;;;;;;;19.53;90.09;101282.81;5268252;28;20106;-78
2023/08/14 07:25:02;;;;;;;12.83;3.97;;;;;;;19.45;89.84;101277.88;5286208;28;20486;-77
2023/08/14 07:27:33;;;;;;;9.60;4.75;;;;;;;19.39;87.46;101275.47;5285890;28;20056;-78
2023/08/14 07:30:05;;;;;;;11.30;4.03;;;;;;;19.41;87.51;101292.97;5285795;28;20422;-77
2023/08/14 07:32:37;;;;;;;11.30;3.67;;;;;;;19.34;88.00;101301.25;5285471;28;20061;-78
2023/08/14 07:35:08;;;;;;;10.97;4.53;;;;;;;19.26;88.53;101302.41;5286153;28;20036;-78
2023/08/14 07:37:39;;;;;;;9.67;4.87;;;;;;;19.09;88.03;101310.16;5285648;28;20030;-79
2023/08/14 07:40:11;;;;;;;13.30;4.73;;;;;;;19.10;86.06;101310.09;5285542;28;20429;-79
2023/08/14 07:42:42;;;;;;;10.88;4.00;;;;;;;19.15;87.03;101323.13;5285828;28;20362;-79
2023/08/14 07:45:14;;;;;;;8.60;3.83;;;;;;;19.23;87.03;101314.88;5267695;28;20033;-79
2023/08/14 07:47:45;;;;;;;12.53;4.87;;;;;;;19.30;85.59;101311.94;5284826;28;20079;-78
2023/08/14 07:50:17;;;;;;;11.70;4.37;;;;;;;19.50;85.55;101302.31;5284959;28;20028;-77
2023/08/14 07:52:48;;;;;;;8.90;3.83;;;;;;;19.54;84.33;101306.53;5267153;28;20384;-78
2023/08/14 07:55:20;;;;;;;12.10;4.03;;;;;;;19.66;82.74;101305.19;5285331;28;20040;-79
2023/08/14 07:57:51;;;;;;;7.90;3.80;;;;;;;19.75;83.71;101299.47;5285382;28;20082;-79
2023/08/14 08:00:22;;;;;;;7.67;3.80;;;;;;;19.85;82.29;101302.59;5285043;28;20032;-78
2023/08/14 08:02:54;;;;;;;7.47;3.10;;;;;;;19.95;81.00;101303.09;5285898;28;20086;-77
2023/08/14 08:05:25;;;;;;;10.47;3.60;;;;;;;20.10;80.43;101307.69;5286144;28;20495;-78
2023/08/14 08:07:57;;;;;;;9.17;3.63;;;;;;;20.15;81.01;101308.34;5285990;28;20036;-79
2023/08/14 08:10:28;;;;;;;9.17;4.00;;;;;;;20.31;80.40;101305.88;5285619;28;20027;-77
2023/08/14 08:13:00;;;;;;;8.60;3.50;;;;;;;20.40;79.06;101294.88;5290940;28;20373;-76
2023/08/14 08:15:31;;;;;;;9.53;3.07;;;;;;;20.55;79.84;101297.72;5277506;28;20032;-78
2023/08/14 08:18:03;;;;;;;9.83;4.33;;;;;;;20.57;78.11;101291.41;5292330;28;20032;-78
2023/08/14 08:20:37;;;;;;;8.37;3.10;;;;;;;20.72;78.23;101289.00;5289717;28;20475;-76
2023/08/14 08:23:08;;;;;;;5.03;2.38;;;;;;;20.83;77.04;101301.75;5290842;28;20384;-77
2023/08/14 08:25:42;;;;;;;10.30;2.70;;;;;;;20.94;76.51;101283.56;5271509;28;20078;-77
2023/08/14 08:28:14;;;;;;;9.27;2.80;;;;;;;21.03;74.18;101290.22;5290681;28;20468;-76
2023/08/14 08:30:45;;;;;;;13.03;3.30;;;;;;;21.11;71.77;101283.59;5289491;28;20036;-78
2023/08/14 08:33:16;;;;;;;6.27;2.70;;;;;;;21.33;75.28;101279.88;5287484;28;20092;-77
2023/08/14 08:35:48;;;;;;;5.50;2.30;;;;;;;21.31;70.89;101281.75;5287865;28;20039;-78
2023/08/14 08:38:19;;;;;;;9.40;2.60;;;;;;;21.49;74.06;101278.22;5287072;28;20024;-78
2023/08/14 08:40:51;;;;;;;6.13;2.40;;;;;;;21.59;70.01;101275.94;5269311;28;20431;-78
2023/08/14 08:43:23;;;;;;;5.03;2.45;;;;;;;21.66;67.92;101279.13;5268231;28;20086;-77
2023/08/14 08:45:58;;;;;;;8.93;2.40;;;;;;;21.77;70.17;101283.91;5285891;28;20427;-77
2023/08/14 08:48:33;;;;;;;6.85;2.40;;;;;;;21.92;69.92;101282.22;5284795;28;20028;-78
2023/08/14 08:51:05;;;;;;;5.47;2.40;;;;;;;22.01;67.57;101281.75;5284816;28;20036;-78
2023/08/14 08:53:37;;;;;;;7.95;2.47;;;;;;;22.25;67.31;101266.31;5283949;28;20036;-78
2023/08/14 08:56:09;;;;;;;7.30;3.03;;;;;;;22.32;65.59;101264.19;5284621;28;20388;-78
2023/08/14 08:58:41;;;;;;;7.55;3.10;;;;;;;22.45;66.16;101270.53;5284276;28;20464;-78
2023/08/14 09:01:13;;;;;;;7.13;2.22;;;;;;;22.47;63.82;101271.31;5265929;28;20115;-78
2023/08/14 09:03:45;;;;;;;7.90;2.95;;;;;;;22.50;62.96;101273.78;5283669;28;20090;-78
2023/08/14 09:06:16;;;;;;;9.35;2.50;;;;;;;22.64;64.17;101274.84;5265917;28;20025;-77
2023/08/14 09:08:48;;;;;;;6.63;2.50;;;;;;;22.62;61.27;101276.72;5284090;28;20028;-78
2023/08/14 09:11:19;;;;;;;7.47;2.47;;;;;;;22.74;62.51;101276.03;5266225;28;20024;-79
2023/08/14 09:13:51;;;;;;;7.75;3.22;;;;;;;22.86;61.31;101269.16;5283995;28;20099;-77
2023/08/14 09:16:24;;;;;;;5.97;2.27;;;;;;;22.78;57.58;101269.59;5283873;28;20036;-79
2023/08/14 09:18:59;;;;;;;7.20;2.65;;;;;;;22.81;58.85;101272.06;5283441;28;20025;-76
2023/08/14 09:21:31;;;;;;;8.13;2.55;;;;;;;22.97;58.72;101272.06;5283747;28;20055;-79
2023/08/14 09:24:03;;;;;;;4.82;2.20;;;;;;;22.87;56.44;101265.56;5283839;28;20082;-77
2023/08/14 09:26:34;;;;;;;6.07;2.42;;;;;;;23.19;57.73;101279.69;5266046;28;20082;-78
2023/08/14 09:29:06;;;;;;;7.20;2.50;;;;;;;23.22;55.16;101265.38;5266542;28;20407;-79
2023/08/14 09:31:41;;;;;;;5.53;2.03;;;;;;;23.35;57.62;101276.16;5290927;28;20033;-78
2023/08/14 09:34:17;;;;;;;4.60;2.30;;;;;;;23.36;54.47;101289.38;5295016;28;20610;-76
2023/08/14 09:36:48;;;;;;;5.82;2.13;;;;;;;23.55;54.40;101288.28;5284809;28;20063;-78
2023/08/14 09:39:20;;;;;;;3.73;2.07;;;;;;;24.08;54.21;101281.53;5265693;28;20483;-77
2023/08/14 09:41:51;;;;;;;3.60;1.95;;;;;;;25.17;50.08;101289.72;5283328;28;20078;-79
2023/08/14 09:44:23;;;;;;;4.03;1.97;;;;;;;26.48;46.11;101290.56;5283406;28;20056;-78
2023/08/14 09:46:59;;;;;;;7.35;1.98;;;;;;;26.72;45.46;101285.28;5282492;28;20271;-76
2023/08/14 09:49:30;;;;;;;7.50;2.65;;;;;;;27.80;42.84;101279.88;5265182;28;20178;-78
2023/08/14 09:52:02;;;;;;;6.65;2.40;;;;;;;28.07;41.27;101276.88;5283305;28;20116;-77
2023/08/14 09:54:34;;;;;;;5.28;2.08;;;;;;;27.95;41.06;101277.84;5265590;28;20132;-79
2023/08/14 09:57:07;;;;;;;4.93;2.00;;;;;;;27.82;40.83;101262.72;5283379;28;20037;-77
2023/08/14 09:59:40;;;;;;;6.40;2.85;;;;;;;28.67;40.06;101264.03;5283688;28;20028;-79
2023/08/14 10:02:15;;;;;;;5.85;2.50;;;;;;;29.33;39.18;101260.38;5265250;28;20040;-79
2023/08/14 10:04:47;;;;;;;6.50;2.53;;;;;;;29.49;37.24;101251.88;5283225;28;20099;-77
2023/08/14 10:07:19;;;;;;;;;;;;;;;31.37;38.62;101251.25;5266085;28;20175;-77
2023/08/14 10:09:53;;;;;;;5.03;1.98;;;;;;;30.27;36.47;101254.09;5283146;28;19915;-78
2023/08/14 10:12:29;;;;;;;4.95;2.60;;;;;;;30.56;35.00;101251.53;5283226;28;20072;-77
2023/08/14 10:15:13;;;;;;;6.88;2.55;;;;;;;30.20;36.54;101243.03;5284699;28;20025;-76
2023/08/14 10:18:13;;;;;;;4.18;2.20;;;;;;;30.89;36.48;101228.72;5286743;28;20032;-77
2023/08/14 10:20:47;;;;;;;5.35;2.63;;;;;;;31.60;33.38;101226.72;5269076;28;20032;-78
2023/08/14 10:23:19;;;;;;;6.18;2.45;;;;;;;31.67;30.92;101216.19;5287000;28;20021;-78
2023/08/14 10:25:51;;;;;;;6.13;2.28;;;;;;;31.53;30.51;101220.22;5287012;28;20051;-76
2023/08/14 10:28:24;;;;;;;5.38;2.53;;;;;;;31.99;30.56;101210.38;5286963;28;20029;-78
2023/08/14 10:30:56;;;;;;;5.68;2.70;;;;;;;31.44;30.68;101205.72;5287054;28;20033;-77
2023/08/14 10:33:28;;;;;;;7.20;2.83;;;;;;;31.26;32.03;101205.63;5286544;28;20113;-78
2023/08/14 10:36:00;;;;;;;4.35;2.28;;;;;;;32.09;31.35;101196.88;5287133;28;20056;-78
2023/08/14 10:38:46;;;;;;;4.22;2.25;;;;;;;32.80;32.64;101188.03;5287307;28;20028;-78
2023/08/14 10:41:18;;;;;;;6.13;2.45;;;;;;;33.66;31.30;101189.13;5287918;28;20056;-78
2023/08/14 10:43:52;;;;;;;7.75;2.88;;;;;;;33.99;28.74;101194.72;5287716;28;20038;-78
2023/08/14 10:46:23;;;;;;;6.10;2.13;;;;;;;33.60;29.30;101184.34;5289529;28;20029;-77
2023/08/14 10:48:56;;;;;;;4.28;2.08;;;;;;;33.87;29.44;101194.16;5293477;28;20043;-78
2023/08/14 10:51:31;;;;;;;7.15;2.92;;;;;;;33.48;28.99;101189.19;5291840;28;20060;-77
2023/08/14 10:54:14;;;;;;;4.75;2.20;;;;;;;33.78;28.29;101200.56;5269384;28;20032;-79
2023/08/14 10:56:49;;;;;;;5.82;2.20;;;;;;;33.66;28.25;101199.94;5286873;28;20468;-76
2023/08/14 10:59:26;;;;;;;4.97;2.20;;;;;;;33.84;28.71;101197.16;5286777;28;20024;-79
2023/08/14 11:02:11;;;;;;;6.03;2.20;;;;;;;34.30;28.72;101200.41;5286503;28;20357;-78
2023/08/14 11:05:12;;;;;;;6.30;2.45;;;;;;;34.67;29.16;101203.69;5286591;28;20052;-80
2023/08/14 11:07:57;;;;;;;7.15;1.95;;;;;;;34.57;28.89;101201.13;5286661;28;20411;-77
2023/08/14 11:10:31;;;;;;;5.72;2.45;;;;;;;34.69;27.72;101201.66;5286688;28;20488;-78
2023/08/14 11:13:08;;;;;;;5.18;2.60;;;;;;;35.27;26.99;101209.81;5286052;28;20024;-79
2023/08/14 11:15:39;;;;;;;7.22;2.20;;;;;;;35.26;26.56;101200.84;5268873;28;20112;-79
2023/08/14 11:18:11;;;;;;;5.18;2.50;;;;;;;35.55;27.32;101207.53;5285814;28;20127;-79
2023/08/14 11:20:43;;;;;;;5.88;2.03;;;;;;;35.20;26.91;101187.97;5286287;28;20056;-80
2023/08/14 11:23:14;;;;;;;7.72;2.80;;;;;;;35.31;26.76;101192.19;5286094;28;20032;-80
2023/08/14 11:25:45;;;;;;;6.50;2.40;;;;;;;35.26;28.16;101189.16;5267615;28;20112;-79
2023/08/14 11:28:17;;;;;;;5.85;2.80;;;;;;;35.73;26.16;101188.34;5268014;28;20032;-81
2023/08/14 11:30:48;;;;;;;7.22;2.60;;;;;;;35.43;25.44;101186.22;5268113;28;20037;-78
2023/08/14 11:33:22;;;;;;;8.05;2.70;;;;;;;34.46;27.37;101171.69;5285743;28;20052;-79
2023/08/14 11:35:54;;;;;;;5.65;2.70;;;;;;;35.40;26.68;101177.59;5285585;28;20036;-79
2023/08/14 11:38:25;;;;;;;4.90;2.30;;;;;;;36.42;27.13;101179.53;5285640;28;20032;-80
2023/08/14 11:40:57;;;;;;;7.28;2.97;;;;;;;37.21;25.01;101176.53;5285513;28;20085;-79